createdAt,value
2018-06-21T00:01:46.666Z,7.13
2018-06-21T00:04:14.273Z,7.30
2018-06-21T00:06:42.629Z,7.17
2018-06-21T00:09:10.281Z,8.00
2018-06-21T00:11:38.956Z,6.93
2018-06-21T00:14:07.565Z,7.97
2018-06-21T00:16:35.356Z,7.13
2018-06-21T00:19:03.944Z,7.63
2018-06-21T00:21:31.623Z,7.13
2018-06-21T00:23:59.191Z,7.63
2018-06-21T00:26:28.480Z,7.33
2018-06-21T00:28:56.698Z,8.53
2018-06-21T00:31:24.338Z,8.47
2018-06-21T00:33:51.997Z,8.70
2018-06-21T00:36:19.610Z,9.30
2018-06-21T00:38:47.173Z,8.50
2018-06-21T00:41:14.822Z,8.00
2018-06-21T00:43:42.372Z,8.60
2018-06-21T00:46:09.981Z,8.07
2018-06-21T00:48:37.664Z,7.90
2018-06-21T00:51:05.260Z,7.50
2018-06-21T00:53:32.850Z,8.40
2018-06-21T00:56:15.320Z,7.80
2018-06-21T00:58:43.108Z,8.50
2018-06-21T01:01:10.841Z,7.90
2018-06-21T01:03:38.514Z,8.60
2018-06-21T01:06:06.120Z,7.73
2018-06-21T01:08:33.742Z,8.20
2018-06-21T01:11:01.354Z,8.13
2018-06-21T01:13:28.989Z,8.03
2018-06-21T01:15:56.572Z,9.50
2018-06-21T01:18:24.200Z,8.10
2018-06-21T01:20:51.796Z,9.30
2018-06-21T01:23:19.440Z,9.23
2018-06-21T01:25:47.069Z,9.27
2018-06-21T01:28:14.656Z,9.40
2018-06-21T01:30:42.242Z,8.83
2018-06-21T01:33:09.777Z,8.80
2018-06-21T01:35:37.370Z,8.17
2018-06-21T01:38:05.005Z,8.60
2018-06-21T01:40:33.647Z,8.47
2018-06-21T01:43:01.238Z,8.37
2018-06-21T01:45:28.994Z,8.00
2018-06-21T01:47:56.707Z,7.80
2018-06-21T01:50:24.965Z,12.40
2018-06-21T01:52:52.518Z,8.57
2018-06-21T01:55:20.101Z,9.00
2018-06-21T01:57:47.661Z,8.80
2018-06-21T02:00:15.229Z,8.97
2018-06-21T02:02:42.832Z,9.40
2018-06-21T02:05:10.351Z,10.63
2018-06-21T02:07:38.314Z,10.33
2018-06-21T02:10:06.079Z,9.90
2018-06-21T02:12:33.676Z,9.30
2018-06-21T02:15:01.258Z,8.10
2018-06-21T02:17:28.812Z,8.63
2018-06-21T02:19:56.360Z,8.53
2018-06-21T02:22:23.884Z,8.30
2018-06-21T02:24:51.493Z,8.93
2018-06-21T02:27:19.083Z,9.07
2018-06-21T02:29:46.626Z,8.27
2018-06-21T02:32:14.238Z,8.63
2018-06-21T02:34:42.444Z,9.03
2018-06-21T02:37:09.995Z,9.83
2018-06-21T02:39:37.533Z,8.93
2018-06-21T02:42:05.686Z,10.00
2018-06-21T02:44:33.220Z,10.80
2018-06-21T02:47:00.815Z,9.30
2018-06-21T02:49:28.392Z,9.27
2018-06-21T02:51:56.668Z,10.57
2018-06-21T02:54:24.227Z,9.20
2018-06-21T02:56:51.825Z,9.10
2018-06-21T02:59:19.451Z,9.67
2018-06-21T03:01:47.043Z,9.90
2018-06-21T03:04:14.614Z,9.37
2018-06-21T03:06:42.201Z,9.23
2018-06-21T03:09:10.216Z,10.17
2018-06-21T03:11:38.120Z,8.77
2018-06-21T03:14:05.668Z,9.43
2018-06-21T03:16:33.212Z,10.70
2018-06-21T03:19:00.784Z,11.70
2018-06-21T03:21:29.279Z,11.00
2018-06-21T03:23:57.451Z,10.80
2018-06-21T03:26:25.049Z,10.90
2018-06-21T03:28:52.611Z,11.30
2018-06-21T03:31:20.147Z,10.80
2018-06-21T03:33:47.715Z,10.63
2018-06-21T03:36:15.276Z,11.37
2018-06-21T03:38:42.890Z,11.00
2018-06-21T03:41:10.463Z,10.80
2018-06-21T03:43:38.041Z,11.10
2018-06-21T03:46:05.596Z,11.43
2018-06-21T03:48:33.607Z,12.43
2018-06-21T03:51:01.206Z,11.80
2018-06-21T03:53:29.374Z,11.00
2018-06-21T03:55:57.932Z,11.00
2018-06-21T03:58:25.469Z,11.53
2018-06-21T04:00:53.043Z,11.70
2018-06-21T04:03:20.639Z,12.53
2018-06-21T04:05:48.254Z,11.73
2018-06-21T04:08:16.894Z,11.70
2018-06-21T04:10:44.467Z,12.10
2018-06-21T04:13:12.053Z,11.87
2018-06-21T04:15:39.626Z,12.53
2018-06-21T04:18:07.279Z,11.90
2018-06-21T04:20:35.269Z,13.17
2018-06-21T04:23:02.832Z,10.97
2018-06-21T04:25:30.419Z,12.00
2018-06-21T04:27:57.996Z,12.50
2018-06-21T04:30:25.555Z,11.23
2018-06-21T04:32:53.131Z,11.40
2018-06-21T04:35:20.659Z,12.70
2018-06-21T04:37:48.283Z,11.83
2018-06-21T04:40:15.891Z,12.20
2018-06-21T04:42:43.501Z,12.97
2018-06-21T04:45:11.100Z,11.70
2018-06-21T04:47:38.811Z,13.03
2018-06-21T04:50:06.359Z,13.83
2018-06-21T04:52:34.043Z,13.20
2018-06-21T04:55:01.592Z,13.20
2018-06-21T04:57:29.219Z,12.10
2018-06-21T04:59:56.893Z,11.40
2018-06-21T05:02:24.404Z,12.23
2018-06-21T05:04:51.946Z,14.17
2018-06-21T05:07:19.504Z,12.30
2018-06-21T05:09:47.112Z,12.63
2018-06-21T05:12:14.946Z,12.47
2018-06-21T05:14:42.580Z,12.17
2018-06-21T05:17:10.130Z,12.30
2018-06-21T05:19:37.685Z,13.37
2018-06-21T05:22:05.206Z,11.47
2018-06-21T05:24:32.769Z,12.43
2018-06-21T05:27:00.305Z,12.63
2018-06-21T05:29:27.860Z,11.87
2018-06-21T05:31:55.442Z,11.70
2018-06-21T05:34:23.017Z,12.47
2018-06-21T05:36:50.567Z,11.87
2018-06-21T05:39:18.128Z,11.93
2018-06-21T05:41:45.646Z,14.80
2018-06-21T05:44:13.814Z,13.50
2018-06-21T05:46:41.436Z,13.60
2018-06-21T05:49:09.639Z,13.47
2018-06-21T05:51:37.245Z,12.13
2018-06-21T05:54:04.838Z,11.73
2018-06-21T05:56:33.156Z,13.07
2018-06-21T05:59:00.720Z,13.30
2018-06-21T06:01:28.340Z,13.00
2018-06-21T06:03:55.913Z,13.30
2018-06-21T06:06:23.519Z,11.53
2018-06-21T06:08:51.058Z,12.07
2018-06-21T06:11:18.625Z,12.07
2018-06-21T06:13:46.138Z,11.90
2018-06-21T06:16:13.667Z,12.40
2018-06-21T06:18:41.288Z,11.93
2018-06-21T06:21:08.803Z,11.67
2018-06-21T06:23:36.323Z,11.05
2018-06-21T06:26:03.961Z,12.40
2018-06-21T06:28:31.630Z,10.63
2018-06-21T06:30:59.223Z,11.83
2018-06-21T06:33:26.795Z,11.93
2018-06-21T06:35:55.544Z,10.40
2018-06-21T06:38:23.147Z,11.57
2018-06-21T06:40:50.699Z,12.33
2018-06-21T06:43:18.872Z,12.53
2018-06-21T06:45:46.486Z,11.83
2018-06-21T06:48:14.075Z,14.00
2018-06-21T06:50:41.631Z,12.70
2018-06-21T06:53:09.259Z,10.33
2018-06-21T06:55:36.857Z,12.37
2018-06-21T06:58:04.695Z,11.67
2018-06-21T07:00:32.248Z,10.70
2018-06-21T07:02:59.853Z,10.00
2018-06-21T07:05:27.362Z,10.03
2018-06-21T07:07:54.932Z,8.93
2018-06-21T07:10:22.535Z,10.90
2018-06-21T07:12:50.144Z,11.63
2018-06-21T07:15:17.785Z,11.17
2018-06-21T07:17:45.412Z,13.80
2018-06-21T07:20:12.987Z,12.47
2018-06-21T07:22:40.607Z,11.50
2018-06-21T07:25:08.202Z,10.00
2018-06-21T07:27:35.810Z,9.80
2018-06-21T07:30:04.080Z,8.93
2018-06-21T07:32:31.731Z,8.37
2018-06-21T07:34:59.269Z,8.40
2018-06-21T07:37:27.174Z,8.37
2018-06-21T07:39:54.752Z,8.37
2018-06-21T07:42:22.336Z,8.07
2018-06-21T07:44:49.951Z,8.07
2018-06-21T07:47:17.505Z,8.20
2018-06-21T07:49:45.060Z,8.30
2018-06-21T07:52:12.615Z,8.33
2018-06-21T07:54:40.195Z,7.80
2018-06-21T07:57:07.720Z,7.43
2018-06-21T07:59:35.317Z,6.93
2018-06-21T08:02:03.777Z,7.97
2018-06-21T08:04:31.373Z,7.67
2018-06-21T08:06:58.933Z,6.70
2018-06-21T08:09:27.219Z,7.40
2018-06-21T08:11:54.841Z,7.53
2018-06-21T08:14:22.374Z,5.87
2018-06-21T08:16:49.959Z,6.67
2018-06-21T08:19:17.514Z,6.47
2018-06-21T08:21:45.103Z,6.80
2018-06-21T08:24:13.525Z,6.87
2018-06-21T08:26:41.217Z,6.00
2018-06-21T08:29:08.726Z,6.40
2018-06-21T08:31:36.323Z,6.63
2018-06-21T08:34:03.899Z,6.40
2018-06-21T08:36:31.458Z,6.00
2018-06-21T08:38:59.066Z,5.57
2018-06-21T08:41:31.696Z,5.03
2018-06-21T08:43:59.348Z,5.57
2018-06-21T08:46:27.036Z,4.83
2018-06-21T08:48:54.699Z,5.53
2018-06-21T08:51:22.265Z,4.73
2018-06-21T08:53:51.938Z,5.27
2018-06-21T08:56:19.503Z,4.53
2018-06-21T08:58:47.109Z,5.40
2018-06-21T09:01:14.626Z,5.40
2018-06-21T09:03:42.241Z,4.40
2018-06-21T09:06:10.055Z,4.60
2018-06-21T09:08:37.807Z,4.63
2018-06-21T09:11:05.381Z,4.50
2018-06-21T09:13:35.522Z,4.30
2018-06-21T09:16:03.883Z,4.80
2018-06-21T09:18:31.481Z,4.43
2018-06-21T09:21:00.583Z,4.57
2018-06-21T09:23:28.106Z,3.80
2018-06-21T09:25:55.689Z,4.90
2018-06-21T09:28:23.400Z,4.60
2018-06-21T09:30:51.025Z,4.33
2018-06-21T09:33:18.703Z,4.33
2018-06-21T09:35:46.439Z,4.23
2018-06-21T09:38:19.735Z,4.47
2018-06-21T09:40:53.073Z,3.90
2018-06-21T09:45:27.820Z,4.03
2018-06-21T09:48:00.971Z,4.37
2018-06-21T09:50:28.490Z,4.40
2018-06-21T09:52:55.987Z,4.07
2018-06-21T09:55:23.571Z,3.93
2018-06-21T09:57:51.197Z,4.20
2018-06-21T10:00:24.235Z,4.63
2018-06-21T10:02:51.786Z,3.80
2018-06-21T10:05:19.370Z,4.00
2018-06-21T10:07:46.950Z,3.97
2018-06-21T10:10:14.585Z,3.60
2018-06-21T10:12:44.811Z,3.77
2018-06-21T10:15:12.747Z,3.53
2018-06-21T10:17:40.308Z,3.77
2018-06-21T10:20:07.900Z,3.50
2018-06-21T10:22:35.458Z,3.37
2018-06-21T10:25:03.127Z,3.50
2018-06-21T10:27:30.708Z,3.77
2018-06-21T10:29:58.285Z,4.07
2018-06-21T10:32:25.864Z,3.90
2018-06-21T10:34:53.504Z,3.30
2018-06-21T10:37:21.110Z,3.73
2018-06-21T10:39:48.793Z,3.23
2018-06-21T10:42:16.420Z,3.40
2018-06-21T10:44:43.959Z,4.57
2018-06-21T10:47:11.529Z,3.73
2018-06-21T10:49:39.926Z,3.57
2018-06-21T10:52:08.186Z,3.27
2018-06-21T10:54:35.771Z,3.90
2018-06-21T10:57:03.447Z,3.93
2018-06-21T10:59:31.037Z,3.43
2018-06-21T11:01:58.636Z,3.40
2018-06-21T11:04:26.223Z,3.37
2018-06-21T11:06:53.826Z,3.87
2018-06-21T11:09:21.390Z,3.50
2018-06-21T11:11:48.865Z,4.13
2018-06-21T11:14:16.419Z,3.57
2018-06-21T11:16:43.992Z,3.93
2018-06-21T11:19:11.622Z,3.60
2018-06-21T11:21:39.222Z,2.93
2018-06-21T11:24:06.849Z,3.70
2018-06-21T11:26:34.438Z,3.67
2018-06-21T11:29:02.027Z,4.30
2018-06-21T11:31:29.651Z,3.43
2018-06-21T11:33:57.212Z,3.50
2018-06-21T11:36:24.742Z,3.63
2018-06-21T11:38:52.304Z,4.60
2018-06-21T11:41:20.840Z,4.07
2018-06-21T11:43:48.501Z,4.77
2018-06-21T11:46:16.040Z,4.17
2018-06-21T11:48:43.647Z,4.30
2018-06-21T11:51:11.175Z,3.83
2018-06-21T11:53:38.746Z,4.57
2018-06-21T11:56:06.391Z,4.40
2018-06-21T11:58:34.001Z,4.03
2018-06-21T12:01:01.520Z,4.37
2018-06-21T12:03:29.199Z,3.80
2018-06-21T12:05:56.723Z,3.63
2018-06-21T12:08:24.299Z,3.87
2018-06-21T12:10:51.844Z,3.90
2018-06-21T12:13:19.586Z,4.13
2018-06-21T12:15:47.200Z,3.50
2018-06-21T12:18:15.056Z,4.30
2018-06-21T12:20:42.679Z,4.10
2018-06-21T12:23:13.140Z,4.57
2018-06-21T12:25:40.836Z,3.87
2018-06-21T12:28:08.422Z,4.13
2018-06-21T12:30:36.036Z,4.13
2018-06-21T12:33:03.571Z,4.30
2018-06-21T12:35:31.189Z,4.27
2018-06-21T12:37:58.813Z,4.20
2018-06-21T12:40:26.392Z,4.73
2018-06-21T12:42:53.923Z,4.10
2018-06-21T12:45:21.557Z,4.33
2018-06-21T12:47:49.232Z,4.40
2018-06-21T12:50:17.465Z,4.10
2018-06-21T12:52:45.056Z,3.67
2018-06-21T12:55:12.751Z,4.07
2018-06-21T12:57:40.386Z,3.57
2018-06-21T13:00:08.018Z,3.80
2018-06-21T13:02:36.261Z,4.23
2018-06-21T13:05:03.924Z,4.20
2018-06-21T13:07:31.552Z,4.30
2018-06-21T13:10:10.568Z,3.93
2018-06-21T13:12:50.587Z,3.77
2018-06-21T13:15:18.309Z,3.53
2018-06-21T13:17:45.869Z,3.80
2018-06-21T13:20:13.466Z,4.40
2018-06-21T13:22:40.967Z,3.90
2018-06-21T13:25:08.589Z,3.87
2018-06-21T13:27:36.183Z,3.77
2018-06-21T13:30:05.264Z,3.17
2018-06-21T13:32:32.874Z,3.83
2018-06-21T13:35:01.351Z,4.27
2018-06-21T13:37:28.885Z,4.20
2018-06-21T13:39:56.897Z,3.47
2018-06-21T13:42:24.463Z,3.50
2018-06-21T13:44:52.915Z,3.83
2018-06-21T13:47:20.512Z,3.70
2018-06-21T13:49:48.133Z,3.80
2018-06-21T13:52:15.764Z,4.00
2018-06-21T13:54:43.391Z,3.67
2018-06-21T13:57:11.019Z,3.50
2018-06-21T13:59:38.615Z,4.00
2018-06-21T14:02:06.351Z,3.40
2018-06-21T14:04:33.910Z,3.60
2018-06-21T14:07:01.470Z,3.53
2018-06-21T14:09:29.578Z,3.50
2018-06-21T14:11:57.177Z,3.43
2018-06-21T14:14:24.841Z,2.93
2018-06-21T14:16:52.535Z,3.13
2018-06-21T14:19:20.153Z,3.40
2018-06-21T14:21:47.766Z,3.87
2018-06-21T14:24:15.424Z,3.53
2018-06-21T14:26:43.488Z,3.23
2018-06-21T14:29:11.155Z,4.00
2018-06-21T14:31:38.772Z,3.73
2018-06-21T14:34:06.336Z,3.53
2018-06-21T14:36:34.970Z,3.50
2018-06-21T14:39:04.016Z,3.83
2018-06-21T14:41:31.701Z,3.40
2018-06-21T14:43:59.295Z,3.60
2018-06-21T14:46:26.940Z,4.40
2018-06-21T14:48:54.600Z,4.47
2018-06-21T14:51:22.250Z,3.93
2018-06-21T14:53:50.002Z,3.67
2018-06-21T14:56:17.564Z,4.47
2018-06-21T14:58:45.604Z,4.13
2018-06-21T15:01:13.219Z,3.30
2018-06-21T15:03:40.888Z,4.37
2018-06-21T15:06:08.459Z,4.30
2018-06-21T15:08:36.044Z,4.53
2018-06-21T15:11:04.264Z,3.67
2018-06-21T15:13:31.856Z,4.07
2018-06-21T15:15:59.423Z,3.80
2018-06-21T15:18:27.061Z,3.50
2018-06-21T15:20:54.628Z,5.40
2018-06-21T15:23:22.253Z,3.70
2018-06-21T15:25:49.941Z,3.67
2018-06-21T15:28:18.524Z,3.63
2018-06-21T15:30:46.251Z,4.20
2018-06-21T15:33:13.925Z,3.43
2018-06-21T15:35:41.511Z,3.80
2018-06-21T15:38:09.180Z,3.60
2018-06-21T15:40:38.812Z,3.63
2018-06-21T15:43:06.411Z,3.63
2018-06-21T15:45:34.061Z,3.70
2018-06-21T15:48:01.648Z,3.17
2018-06-21T15:50:29.260Z,4.20
2018-06-21T15:52:56.803Z,4.00
2018-06-21T15:55:24.430Z,2.50
2018-06-21T15:57:52.033Z,3.50
2018-06-21T16:00:20.245Z,2.40
2018-06-21T16:02:47.815Z,2.70
2018-06-21T16:05:16.109Z,2.33
2018-06-21T16:07:43.662Z,3.10
2018-06-21T16:10:11.188Z,2.33
2018-06-21T16:12:38.789Z,2.73
2018-06-21T16:15:06.437Z,3.00
2018-06-21T16:17:34.140Z,3.00
2018-06-21T16:20:01.769Z,2.60
2018-06-21T16:22:29.283Z,2.93
2018-06-21T16:24:56.879Z,2.43
2018-06-21T16:27:25.256Z,3.00
2018-06-21T16:29:52.960Z,2.90
2018-06-21T16:32:20.555Z,2.40
2018-06-21T16:34:48.171Z,3.20
2018-06-21T16:37:15.814Z,2.80
2018-06-21T16:39:44.340Z,2.50
2018-06-21T16:42:12.061Z,2.70
2018-06-21T16:44:39.676Z,2.43
2018-06-21T16:47:07.318Z,2.73
2018-06-21T16:49:35.015Z,2.60
2018-06-21T16:52:02.640Z,3.10
2018-06-21T16:54:30.256Z,2.70
2018-06-21T16:56:57.846Z,2.40
2018-06-21T16:59:25.565Z,2.67
2018-06-21T17:01:53.110Z,2.70
2018-06-21T17:04:20.723Z,2.53
2018-06-21T17:06:48.381Z,2.33
2018-06-21T17:09:15.952Z,2.77
2018-06-21T17:11:43.561Z,2.67
2018-06-21T17:14:11.228Z,2.80
2018-06-21T17:16:38.831Z,2.57
2018-06-21T17:19:06.840Z,2.47
2018-06-21T17:21:34.407Z,2.97
2018-06-21T17:24:02.053Z,2.43
2018-06-21T17:26:29.801Z,2.70
2018-06-21T17:28:57.526Z,3.00
2018-06-21T17:31:25.051Z,2.70
2018-06-21T17:33:52.782Z,3.17
2018-06-21T17:36:20.415Z,2.33
2018-06-21T17:38:48.141Z,2.80
2018-06-21T17:41:15.744Z,2.80
2018-06-21T17:43:43.319Z,3.53
2018-06-21T17:46:10.898Z,3.00
2018-06-21T17:48:39.260Z,2.60
2018-06-21T17:51:06.838Z,2.70
2018-06-21T17:53:34.434Z,3.03
2018-06-21T17:56:02.120Z,2.13
2018-06-21T17:58:29.797Z,3.00
2018-06-21T18:00:57.389Z,2.90
2018-06-21T18:03:24.979Z,2.87
2018-06-21T18:05:52.595Z,2.27
2018-06-21T18:08:20.206Z,2.20
2018-06-21T18:10:47.913Z,2.90
2018-06-21T18:13:15.538Z,2.90
2018-06-21T18:15:43.197Z,2.50
2018-06-21T18:18:10.878Z,2.53
2018-06-21T18:20:38.462Z,2.87
2018-06-21T18:23:06.096Z,3.10
2018-06-21T18:25:33.726Z,3.30
2018-06-21T18:28:01.620Z,4.10
2018-06-21T18:30:29.345Z,3.07
2018-06-21T18:32:57.148Z,3.10
2018-06-21T18:35:24.820Z,3.73
2018-06-21T18:37:52.559Z,3.70
2018-06-21T18:40:20.497Z,3.73
2018-06-21T18:42:48.150Z,3.63
2018-06-21T18:45:15.844Z,4.20
2018-06-21T18:47:43.361Z,3.77
2018-06-21T18:50:10.975Z,3.90
2018-06-21T18:52:38.695Z,3.93
2018-06-21T18:55:07.024Z,4.13
2018-06-21T18:57:34.695Z,3.10
2018-06-21T19:00:02.389Z,4.23
2018-06-21T19:02:29.930Z,3.97
2018-06-21T19:04:57.563Z,4.50
2018-06-21T19:07:32.594Z,4.10
2018-06-21T19:10:05.586Z,4.23
2018-06-21T19:12:33.246Z,4.27
2018-06-21T19:15:00.787Z,4.60
2018-06-21T19:17:28.417Z,4.30
2018-06-21T19:19:56.024Z,3.60
2018-06-21T19:22:23.648Z,4.13
2018-06-21T19:24:51.393Z,3.20
2018-06-21T19:27:19.077Z,3.73
2018-06-21T19:29:46.709Z,4.00
2018-06-21T19:32:14.371Z,4.03
2018-06-21T19:34:41.962Z,3.37
2018-06-21T19:37:09.596Z,3.73
2018-06-21T19:39:37.260Z,3.50
2018-06-21T19:42:05.000Z,4.23
2018-06-21T19:44:32.639Z,3.50
2018-06-21T19:47:00.275Z,3.70
2018-06-21T19:49:27.964Z,3.93
2018-06-21T19:51:55.489Z,3.70
2018-06-21T19:54:24.778Z,3.43
2018-06-21T19:56:52.440Z,3.70
2018-06-21T19:59:20.049Z,3.03
2018-06-21T20:01:47.648Z,3.47
2018-06-21T20:04:15.299Z,3.50
2018-06-21T20:06:43.005Z,3.10
2018-06-21T20:09:11.869Z,2.93
2018-06-21T20:11:40.294Z,3.10
2018-06-21T20:14:07.884Z,2.93
2018-06-21T20:16:35.494Z,2.70
2018-06-21T20:19:09.343Z,2.90
2018-06-21T20:21:37.074Z,2.63
2018-06-21T20:24:04.780Z,1.97
2018-06-21T20:26:32.396Z,2.23
2018-06-21T20:28:59.983Z,2.10
2018-06-21T20:31:27.595Z,2.17
2018-06-21T20:33:55.320Z,2.43
2018-06-21T20:36:27.958Z,2.73
2018-06-21T20:38:55.604Z,2.27
2018-06-21T20:41:23.177Z,1.70
2018-06-21T20:43:51.244Z,2.43
2018-06-21T20:46:18.941Z,2.30
2018-06-21T20:48:46.843Z,2.40
2018-06-21T20:51:14.847Z,1.83
2018-06-21T20:53:43.015Z,3.03
2018-06-21T20:56:10.619Z,2.27
2018-06-21T20:58:38.201Z,2.60
2018-06-21T21:01:05.801Z,1.73
2018-06-21T21:03:33.498Z,2.27
2018-06-21T21:06:02.709Z,2.07
2018-06-21T21:08:30.265Z,2.03
2018-06-21T21:10:57.853Z,1.63
2018-06-21T21:13:25.479Z,1.97
2018-06-21T21:15:53.093Z,1.80
2018-06-21T21:18:20.666Z,2.27
2018-06-21T21:20:48.376Z,2.17
2018-06-21T21:23:16.825Z,2.13
2018-06-21T21:25:44.394Z,1.50
2018-06-21T21:28:12.011Z,1.57
2018-06-21T21:30:39.646Z,1.40
2018-06-21T21:33:07.222Z,1.90
2018-06-21T21:35:34.851Z,1.73
2018-06-21T21:38:02.453Z,1.50
2018-06-21T21:40:30.082Z,1.70
2018-06-21T21:42:57.675Z,1.47
2018-06-21T21:45:25.278Z,1.60
2018-06-21T21:47:52.901Z,1.73
2018-06-21T21:50:20.552Z,1.30
2018-06-21T21:52:48.162Z,1.33
2018-06-21T21:55:15.717Z,1.70
2018-06-21T21:57:43.332Z,1.30
2018-06-21T22:00:49.578Z,1.67
2018-06-21T22:03:17.195Z,1.47
2018-06-21T22:05:44.789Z,1.40
2018-06-21T22:08:12.390Z,1.30
2018-06-21T22:10:41.376Z,1.30
2018-06-21T22:13:09.025Z,1.47
2018-06-21T22:15:36.558Z,1.13
2018-06-21T22:18:04.396Z,1.13
2018-06-21T22:20:31.885Z,1.53
2018-06-21T22:22:59.671Z,1.87
2018-06-21T22:25:27.825Z,1.77
2018-06-21T22:27:55.947Z,1.63
2018-06-21T22:30:23.560Z,1.43
2018-06-21T22:32:51.233Z,1.30
2018-06-21T22:35:19.124Z,1.47
2018-06-21T22:37:46.715Z,1.50
2018-06-21T22:40:15.299Z,1.47
2018-06-21T22:42:43.164Z,2.70
2018-06-21T22:45:10.732Z,1.23
2018-06-21T22:47:38.894Z,2.37
2018-06-21T22:50:06.491Z,1.50
2018-06-21T22:52:34.027Z,1.50
2018-06-21T22:55:02.189Z,1.73
2018-06-21T22:57:30.603Z,1.20
2018-06-21T22:59:58.391Z,1.40
2018-06-21T23:02:25.986Z,1.67
2018-06-21T23:04:54.198Z,1.43
2018-06-21T23:07:21.776Z,1.47
2018-06-21T23:09:49.342Z,1.30
2018-06-21T23:12:16.932Z,1.07
2018-06-21T23:14:44.561Z,1.20
2018-06-21T23:17:12.048Z,1.20
2018-06-21T23:19:39.665Z,1.50
2018-06-21T23:22:07.195Z,1.00
2018-06-21T23:24:34.725Z,1.47
2018-06-21T23:27:11.731Z,1.53
2018-06-21T23:29:39.265Z,1.40
2018-06-21T23:32:06.765Z,1.27
2018-06-21T23:34:34.260Z,1.43
2018-06-21T23:37:01.825Z,1.00
2018-06-21T23:39:29.374Z,1.30
2018-06-21T23:41:56.968Z,1.53
2018-06-21T23:44:24.533Z,1.60
2018-06-21T23:46:53.198Z,1.40
2018-06-21T23:49:20.776Z,2.20
2018-06-21T23:51:48.377Z,1.50
2018-06-21T23:54:15.952Z,2.00
2018-06-21T23:56:44.128Z,1.40
2018-06-21T23:59:11.757Z,1.20
